Time;durP1;ratioP1;P1;durP2;ratioP2;P2;SDS_P1;SDS_P2;PMS_P1;PMS_P2;Temp;Humidity;BMP_temperature;BMP_pressure;BME280_temperature;BME280_humidity;BME280_pressure;Samples;Min_cycle;Max_cycle;Signal;HPM_P1;HPM_P2
2022/08/31 05:16:43;;;;;;;;;9.50;6.50;;;;;20.89;48.15;101718.44;2413696;28;72995;-93
2022/08/31 05:17:54;;;;;;;;;7.25;6.00;;;;;20.90;48.68;101719.28;2408960;28;45699;-89
2022/08/31 05:19:04;;;;;;;;;7.00;6.00;;;;;20.90;48.42;101720.16;2411508;28;48095;-88
2022/08/31 05:20:15;;;;;;;;;6.00;6.00;;;;;20.89;48.04;101713.09;2418389;28;45842;-88
2022/08/31 05:21:29;;;;;;;;;6.25;6.00;;;;;20.90;48.31;101719.28;2421597;28;46327;-88
2022/08/31 05:22:39;;;;;;;;;7.75;6.50;;;;;20.89;48.30;101714.94;2421604;28;45311;-88
2022/08/31 05:23:50;;;;;;;;;9.00;6.00;;;;;20.89;48.42;101718.44;2409740;28;48201;-89
2022/08/31 05:25:00;;;;;;;;;6.75;5.75;;;;;20.89;48.24;101721.09;2409598;28;44752;-88
2022/08/31 05:26:19;;;;;;;;;5.00;5.00;;;;;20.89;48.48;101712.25;2418929;28;46094;-90
2022/08/31 05:27:29;;;;;;;;;5.00;5.00;;;;;20.89;48.47;101710.41;2410801;28;45416;-88
2022/08/31 05:28:40;;;;;;;;;6.25;5.75;;;;;20.91;48.18;101715.69;2409239;28;46440;-87
2022/08/31 05:29:50;;;;;;;;;4.50;4.00;;;;;20.88;48.42;101716.72;2420305;28;45242;-88
2022/08/31 05:31:02;;;;;;;;;7.75;6.75;;;;;20.86;48.30;101713.31;2410141;28;47046;-89
2022/08/31 05:32:12;;;;;;;;;6.50;6.00;;;;;20.84;47.96;101709.00;2401532;28;44823;-89
2022/08/31 05:33:22;;;;;;;;;6.75;6.50;;;;;20.81;48.47;101704.72;2413276;28;45428;-90
2022/08/31 05:34:32;;;;;;;;;6.00;6.00;;;;;20.78;48.48;101713.75;2420950;28;45237;-91
2022/08/31 05:35:43;;;;;;;;;6.50;6.50;;;;;20.81;48.17;101710.03;2411244;28;46955;-90
2022/08/31 05:36:55;;;;;;;;;7.00;6.00;;;;;20.79;48.48;101707.44;2410530;28;44706;-91
2022/08/31 05:38:05;;;;;;;;;8.25;7.00;;;;;20.77;48.16;101706.69;2414239;28;47353;-90
2022/08/31 05:39:16;;;;;;;;;7.50;4.75;;;;;20.78;48.51;101708.41;2411559;28;44713;-90
2022/08/31 05:40:27;;;;;;;;;5.25;5.00;;;;;20.74;48.60;101711.38;2411423;28;47470;-91
2022/08/31 05:41:39;;;;;;;;;5.75;5.75;;;;;20.73;48.82;101715.00;2411416;28;44713;-90
2022/08/31 05:42:49;;;;;;;;;6.00;5.25;;;;;20.73;48.77;101705.16;2404435;28;48157;-90
2022/08/31 05:44:02;;;;;;;;;5.25;5.25;;;;;20.74;48.50;101706.03;2406885;28;44809;-88
2022/08/31 05:45:13;;;;;;;;;8.75;7.50;;;;;20.74;48.76;101700.69;2408210;28;47970;-89
2022/08/31 05:46:23;;;;;;;;;5.00;4.00;;;;;20.73;48.85;101705.16;2395955;28;45538;-90
2022/08/31 05:47:33;;;;;;;;;7.75;6.25;;;;;20.74;48.33;101708.72;2410113;28;46214;-89
2022/08/31 05:48:44;;;;;;;;;6.25;6.25;;;;;20.73;48.78;101701.63;2421073;28;45345;-88
2022/08/31 05:49:54;;;;;;;;;5.75;5.25;;;;;20.72;48.71;101702.59;2420206;28;46301;-84
2022/08/31 05:51:08;;;;;;;;;8.25;6.00;;;;;20.72;48.65;101700.75;2410086;28;45309;-87
2022/08/31 05:52:18;;;;;;;;;7.00;5.75;;;;;20.72;48.18;101705.28;2412758;28;45863;-87
2022/08/31 05:53:29;;;;;;;;;6.00;6.00;;;;;20.69;48.54;101709.81;2411834;28;44739;-87
2022/08/31 05:54:39;;;;;;;;;6.25;5.25;;;;;20.69;48.76;101704.47;2404591;28;47354;-87
2022/08/31 05:55:57;;;;;;;;;8.75;6.00;;;;;20.67;48.89;101709.06;2405805;28;45408;-81
2022/08/31 05:57:08;;;;;;;;;6.25;6.25;;;;;20.67;48.80;101711.75;2404640;28;47721;-86
2022/08/31 05:58:18;;;;;;;;;11.25;6.75;;;;;20.66;48.86;101715.38;2412476;28;44746;-87
2022/08/31 05:59:29;;;;;;;;;6.75;6.75;;;;;20.67;48.57;101718.88;2410765;28;46170;-87
2022/08/31 06:00:40;;;;;;;;;9.50;7.00;;;;;20.65;48.88;101718.13;2414822;28;45431;-86
2022/08/31 06:01:50;;;;;;;;;9.25;6.00;;;;;20.67;48.81;101718.88;2407953;28;47359;-88
2022/08/31 06:03:00;;;;;;;;;5.00;5.00;;;;;20.66;48.72;101715.38;2413921;28;45267;-87
2022/08/31 06:04:11;;;;;;;;;8.50;5.25;;;;;20.68;48.70;101720.63;2418969;28;45280;-88
2022/08/31 06:05:22;;;;;;;;;9.00;6.75;;;;;20.68;48.78;101725.97;2419822;28;45434;-87
2022/08/31 06:06:33;;;;;;;;;6.00;5.00;;;;;20.69;48.99;101720.50;2419684;28;46196;-86
2022/08/31 06:07:45;;;;;;;;;6.75;5.25;;;;;20.70;49.05;101721.38;2414228;28;45915;-88
2022/08/31 06:08:57;;;;;;;;;7.50;7.50;;;;;20.73;48.74;101723.00;2407220;28;47136;-88
2022/08/31 06:10:08;;;;;;;;;7.25;4.25;;;;;20.73;48.67;101728.34;2396739;28;45305;-88
2022/08/31 06:11:21;;;;;;;;;4.25;4.25;;;;;20.75;48.89;101723.75;2409832;28;47156;-87
2022/08/31 06:12:33;;;;;;;;;7.00;7.00;;;;;20.76;49.34;101728.16;2403590;28;45639;-87
2022/08/31 06:13:43;;;;;;;;;6.25;6.25;;;;;20.73;49.17;101723.00;2400168;28;48071;-88
2022/08/31 06:14:54;;;;;;;;;6.50;6.00;;;;;20.74;49.11;101727.41;2407742;28;45638;-88
2022/08/31 06:16:05;;;;;;;;;9.00;7.50;;;;;20.75;49.00;101737.13;2402771;28;47030;-88
2022/08/31 06:17:16;;;;;;;;;6.25;6.25;;;;;20.73;48.97;101725.69;2399189;28;46647;-89
2022/08/31 06:18:27;;;;;;;;;7.75;7.75;;;;;20.73;49.60;101723.88;2399051;28;47819;-87
2022/08/31 06:19:38;;;;;;;;;5.75;5.50;;;;;20.76;48.76;101725.50;2399196;28;45479;-89
2022/08/31 06:20:48;;;;;;;;;10.25;6.75;;;;;20.76;48.99;101730.84;2413690;28;45446;-89
2022/08/31 06:21:59;;;;;;;;;8.00;8.00;;;;;20.76;49.12;101722.81;2407958;28;45439;-88
2022/08/31 06:23:11;;;;;;;;;6.50;6.00;;;;;20.76;48.78;101723.69;2413772;28;48301;-88
2022/08/31 06:24:22;;;;;;;;;6.75;6.75;;;;;20.75;48.89;101721.97;2409182;28;44837;-88
2022/08/31 06:25:35;;;;;;;;;7.00;6.25;;;;;20.76;49.11;101720.16;2406383;28;48528;-88
2022/08/31 06:26:51;;;;;;;;;5.25;5.25;;;;;20.78;49.16;101723.59;2410424;28;44791;-89
2022/08/31 06:28:05;;;;;;;;;8.00;8.00;;;;;20.79;49.04;101726.16;2404153;28;47153;-89
2022/08/31 06:29:16;;;;;;;;;8.50;6.75;;;;;20.80;49.21;101721.69;2407004;28;44667;-88
2022/08/31 06:30:26;;;;;;;;;9.00;8.00;;;;;20.80;48.88;101729.69;2419089;28;45217;-88
2022/08/31 06:31:41;;;;;;;;;5.25;5.25;;;;;20.77;48.77;101721.84;2414344;28;45276;-87
2022/08/31 06:32:53;;;;;;;;;6.25;6.25;;;;;20.77;48.77;101724.53;2405886;28;48097;-87
2022/08/31 06:34:05;;;;;;;;;9.00;7.75;;;;;20.78;48.97;101718.25;2397455;28;44703;-89
2022/08/31 06:35:16;;;;;;;;;7.25;7.00;;;;;20.78;49.27;101723.59;2404993;28;47229;-88
2022/08/31 06:36:28;;;;;;;;;7.00;7.00;;;;;20.81;48.94;101734.09;2420236;28;44776;-87
2022/08/31 06:37:39;;;;;;;;;5.00;5.00;;;;;20.79;49.10;101734.16;2412208;28;45346;-87
2022/08/31 06:38:50;;;;;;;;;9.25;7.25;;;;;20.78;48.98;101727.13;2413647;28;45761;-88
2022/08/31 06:40:00;;;;;;;;;12.25;7.25;;;;;20.79;49.09;101726.16;2401660;28;47288;-88
2022/08/31 06:41:16;;;;;;;;;5.50;5.50;;;;;20.77;49.20;101729.88;2410125;28;45525;-89
2022/08/31 06:42:27;;;;;;;;;8.25;7.75;;;;;20.76;49.22;101737.03;2415145;28;45597;-88
2022/08/31 06:43:37;;;;;;;;;7.50;7.50;;;;;20.75;49.27;101732.66;2415510;28;45538;-89
2022/08/31 06:44:48;;;;;;;;;9.50;7.50;;;;;20.76;49.72;101726.38;2413206;28;47994;-89
2022/08/31 06:45:58;;;;;;;;;8.75;7.00;;;;;20.78;49.19;101732.47;2412188;28;45712;-88
2022/08/31 06:47:09;;;;;;;;;9.75;7.50;;;;;20.81;49.52;101734.09;2396077;28;46895;-88
2022/08/31 06:48:19;;;;;;;;;6.25;6.25;;;;;20.84;49.44;101728.53;2408011;28;45549;-89
2022/08/31 06:49:29;;;;;;;;;7.50;6.75;;;;;20.86;49.46;101737.34;2417328;28;45538;-88
2022/08/31 06:50:40;;;;;;;;;7.25;5.50;;;;;20.89;49.15;101734.47;2415278;28;46114;-88
2022/08/31 06:51:50;;;;;;;;;9.00;8.00;;;;;20.93;49.28;101737.81;2415391;28;46228;-88
2022/08/31 06:53:01;;;;;;;;;9.50;7.25;;;;;20.94;49.37;101733.34;2407775;28;45463;-89
2022/08/31 06:54:13;;;;;;;;;11.75;9.00;;;;;20.97;49.18;101741.16;2404175;28;48152;-87
2022/08/31 06:55:24;;;;;;;;;9.00;9.00;;;;;20.97;49.12;101741.16;2409313;28;45776;-88
2022/08/31 06:56:35;;;;;;;;;8.00;8.00;;;;;20.96;48.82;101742.13;2406798;28;47380;-87
2022/08/31 06:57:45;;;;;;;;;10.75;8.25;;;;;20.94;49.36;101738.69;2398087;28;45428;-89
2022/08/31 06:58:56;;;;;;;;;6.50;6.50;;;;;20.95;49.45;101745.72;2395518;28;47199;-88
2022/08/31 07:00:07;;;;;;;;;6.50;3.25;;;;;20.94;49.13;101736.84;2398898;28;45368;-87
2022/08/31 07:01:21;;;;;;;;;7.25;7.25;;;;;20.95;49.21;101741.25;2396973;28;47053;-87
2022/08/31 07:02:32;;;;;;;;;8.00;6.75;;;;;20.95;49.27;101743.06;2406671;28;45554;-89
2022/08/31 07:03:43;;;;;;;;;7.75;7.75;;;;;20.96;49.08;101744.78;2414929;28;46322;-88
2022/08/31 07:04:55;;;;;;;;;6.00;4.00;;;;;20.98;49.49;101750.91;2414062;28;45407;-89
2022/08/31 07:06:09;;;;;;;;;12.25;9.75;;;;;20.97;48.96;101738.47;2415170;28;45516;-89
2022/08/31 07:07:20;;;;;;;;;11.75;9.50;;;;;21.01;49.15;101740.88;2404234;28;44859;-89
2022/08/31 07:08:30;;;;;;;;;8.75;7.50;;;;;21.01;49.46;101738.22;2408461;28;45360;-88
2022/08/31 07:09:41;;;;;;;;;8.25;7.50;;;;;21.00;49.22;101735.63;2415032;28;45541;-87
2022/08/31 07:10:51;;;;;;;;;9.25;8.25;;;;;21.00;49.42;101739.19;2411310;28;48288;-88
2022/08/31 07:12:02;;;;;;;;;9.25;6.25;;;;;21.01;49.00;101740.88;2410201;28;45544;-88
2022/08/31 07:13:13;;;;;;;;;7.00;7.00;;;;;20.99;49.55;101734.75;2413194;28;47262;-87
2022/08/31 07:14:25;;;;;;;;;13.50;8.75;;;;;21.00;49.12;101735.63;2417897;28;45312;-87
2022/08/31 07:15:35;;;;;;;;;9.00;9.00;;;;;21.02;48.95;101741.75;2405556;28;47970;-87
2022/08/31 07:16:47;;;;;;;;;10.75;8.25;;;;;21.02;49.25;101739.94;2396230;28;45580;-88
2022/08/31 07:17:57;;;;;;;;;9.50;7.75;;;;;21.03;49.50;101738.16;2398458;28;47340;-89
2022/08/31 07:19:07;;;;;;;;;11.00;10.00;;;;;21.02;49.06;101734.59;2406859;28;44870;-88
2022/08/31 07:20:18;;;;;;;;;8.50;6.75;;;;;21.04;49.03;101737.16;2412697;28;46267;-88
2022/08/31 07:21:32;;;;;;;;;5.25;5.25;;;;;21.09;49.15;101739.56;2415798;28;45483;-87
2022/08/31 07:22:42;;;;;;;;;13.25;11.00;;;;;21.09;49.17;101744.91;2413665;28;47102;-87
2022/08/31 07:23:55;;;;;;;;;16.00;10.50;;;;;21.12;49.11;101731.34;2413857;28;45486;-89
2022/08/31 07:25:06;;;;;;;;;13.50;10.75;;;;;21.14;49.13;101740.13;2415842;28;46438;-87
2022/08/31 07:26:24;;;;;;;;;11.25;9.75;;;;;21.16;49.08;101737.38;2412256;28;45552;-89
2022/08/31 07:27:35;;;;;;;;;9.00;8.00;;;;;21.13;48.64;101735.75;2406519;28;48728;-88
2022/08/31 07:28:51;;;;;;;;;8.25;8.25;;;;;21.17;49.14;101739.06;2402574;28;45544;-89
2022/08/31 07:30:02;;;;;;;;;10.25;9.25;;;;;21.19;49.28;101739.84;2407024;28;45571;-87
2022/08/31 07:31:16;;;;;;;;;6.75;6.75;;;;;21.20;49.56;101737.09;2403054;28;45898;-88
2022/08/31 07:32:26;;;;;;;;;10.75;8.25;;;;;21.22;48.94;101737.84;2411055;28;47186;-88
2022/08/31 07:33:39;;;;;;;;;11.00;9.00;;;;;21.25;49.46;101737.66;2416274;28;45197;-88
2022/08/31 07:34:50;;;;;;;;;7.00;6.00;;;;;21.30;49.28;101731.16;2414904;28;45566;-88
2022/08/31 07:36:00;;;;;;;;;10.00;10.00;;;;;21.32;49.04;101732.78;2413319;28;45575;-87
2022/08/31 07:43:07;;;;;;;;;13.25;9.00;;;;;21.38;48.73;101730.66;2421225;28;45356;-89
2022/08/31 07:44:19;;;;;;;;;8.50;8.50;;;;;21.40;49.17;101729.63;2413317;28;47329;-88
2022/08/31 07:45:31;;;;;;;;;10.25;9.25;;;;;21.42;49.02;101729.50;2412574;28;46502;-88
2022/08/31 07:46:41;;;;;;;;;10.75;9.25;;;;;21.44;48.68;101724.91;2414811;28;44841;-88
2022/08/31 07:47:53;;;;;;;;;11.50;10.25;;;;;21.44;48.85;101730.28;2419281;28;45312;-89
2022/08/31 07:49:11;;;;;;;;;11.50;9.75;;;;;21.44;49.09;101730.28;2411069;28;45298;-89
2022/08/31 07:50:23;;;;;;;;;11.75;11.00;;;;;21.45;49.02;101742.69;2411076;28;47061;-89
2022/08/31 07:51:33;;;;;;;;;8.75;7.25;;;;;21.44;49.18;101730.28;2412737;28;45245;-89
2022/08/31 07:52:50;;;;;;;;;8.50;7.75;;;;;21.48;49.04;101737.16;2408906;28;46080;-89
2022/08/31 07:54:03;;;;;;;;;11.50;11.25;;;;;21.51;48.44;101736.94;2416510;28;44691;-88
2022/08/31 07:55:16;;;;;;;;;11.75;9.50;;;;;21.52;48.56;101736.00;2403231;28;47563;-89
2022/08/31 07:56:28;;;;;;;;;8.25;8.00;;;;;21.55;48.83;101735.81;2412591;28;45353;-87
2022/08/31 07:57:42;;;;;;;;;10.50;10.50;;;;;21.58;49.23;101732.91;2407276;28;47391;-88
2022/08/31 07:58:53;;;;;;;;;13.50;12.25;;;;;21.60;48.63;101735.50;2398724;28;44785;-89
2022/08/31 08:00:07;;;;;;;;;10.25;9.00;;;;;21.64;48.81;101736.16;2407992;28;45566;-88
2022/08/31 08:01:18;;;;;;;;;10.25;10.00;;;;;21.64;48.64;101733.47;2417988;28;45381;-89
2022/08/31 08:02:29;;;;;;;;;9.00;7.75;;;;;21.64;49.01;101731.66;2421353;28;45541;-89
2022/08/31 08:03:42;;;;;;;;;11.50;10.25;;;;;21.69;48.27;101734.91;2422909;28;45489;-89
2022/08/31 08:04:53;;;;;;;;;11.00;11.00;;;;;21.68;48.17;101732.34;2408244;28;47368;-90
2022/08/31 08:06:11;;;;;;;;;9.75;9.25;;;;;21.70;48.61;101733.09;2397170;28;45231;-88
2022/08/31 08:07:21;;;;;;;;;11.75;9.25;;;;;21.70;48.40;101741.94;2411842;28;47065;-90
2022/08/31 08:08:33;;;;;;;;;9.00;7.00;;;;;21.69;48.44;101734.03;2405301;28;45246;-89
2022/08/31 08:09:43;;;;;;;;;11.25;11.00;;;;;21.69;48.80;101734.91;2405877;28;47853;-89
2022/08/31 08:10:53;;;;;;;;;8.25;7.50;;;;;21.71;48.70;101734.78;2408359;28;45262;-88
2022/08/31 08:12:07;;;;;;;;;10.25;9.25;;;;;21.73;48.67;101730.19;2409952;28;48190;-89
2022/08/31 08:13:18;;;;;;;;;14.00;11.50;;;;;21.76;48.39;101730.00;2415806;28;44936;-87
2022/08/31 08:14:29;;;;;;;;;12.50;10.00;;;;;21.79;48.20;101732.50;2413816;28;45359;-89
2022/08/31 08:15:39;;;;;;;;;10.75;10.75;;;;;21.83;48.45;101729.63;2415215;28;45395;-89
2022/08/31 08:16:50;;;;;;;;;12.25;12.25;;;;;21.85;48.69;101727.69;2417797;28;47894;-89
2022/08/31 08:18:02;;;;;;;;;10.25;9.00;;;;;21.86;48.32;101721.38;2419212;28;45316;-90
2022/08/31 08:19:13;;;;;;;;;12.25;11.00;;;;;21.88;48.33;101727.50;2417364;28;47963;-89
2022/08/31 08:20:23;;;;;;;;;9.25;7.75;;;;;21.87;48.42;101724.00;2403827;28;45279;-89
2022/08/31 08:21:34;;;;;;;;;9.00;9.00;;;;;21.89;48.72;101727.41;2412451;28;46312;-89
2022/08/31 08:22:45;;;;;;;;;10.25;8.50;;;;;21.90;48.42;101718.41;2411812;28;45164;-88
2022/08/31 08:23:56;;;;;;;;;11.25;11.25;;;;;21.93;48.57;101720.03;2410045;28;46680;-88
2022/08/31 08:25:07;;;;;;;;;13.25;12.75;;;;;21.95;48.16;101715.47;2421411;28;45267;-88
2022/08/31 08:26:18;;;;;;;;;9.50;9.25;;;;;21.98;48.16;101725.94;2412404;28;47241;-88
2022/08/31 08:27:28;;;;;;;;;12.75;11.25;;;;;21.98;48.59;101715.22;2403831;28;45652;-93
2022/08/31 08:28:38;;;;;;;;;11.50;11.50;;;;;22.00;48.35;101717.84;2414996;28;46280;-86
2022/08/31 08:29:49;;;;;;;;;8.50;7.50;;;;;22.00;48.17;101716.00;2415501;28;44750;-91
2022/08/31 08:31:02;;;;;;;;;15.75;10.50;;;;;22.02;48.15;101718.59;2418227;28;45450;-90
2022/08/31 08:32:13;;;;;;;;;9.50;9.50;;;;;22.03;48.36;101710.44;2421285;28;45300;-91
2022/08/31 08:33:24;;;;;;;;;11.75;10.75;;;;;22.04;48.06;101719.34;2422672;28;45399;-92
2022/08/31 08:34:40;;;;;;;;;15.75;13.25;;;;;22.08;47.66;101717.28;2411950;28;45257;-91
2022/08/31 08:35:55;;;;;;;;;12.50;10.50;;;;;22.08;48.02;101714.63;2406469;28;47442;-92
2022/08/31 08:37:09;;;;;;;;;8.25;7.50;;;;;22.10;48.17;101708.19;2403450;28;44632;-90
2022/08/31 08:38:19;;;;;;;;;16.00;11.25;;;;;22.13;48.03;101709.81;2406052;28;46076;-91
2022/08/31 08:39:29;;;;;;;;;18.00;13.50;;;;;22.14;47.61;101708.88;2403270;28;44759;-90
2022/08/31 08:40:41;;;;;;;;;12.50;12.50;;;;;22.16;48.02;101714.97;2415437;28;45374;-92
2022/08/31 08:41:56;;;;;;;;;14.00;11.50;;;;;22.18;48.14;101713.03;2411672;28;44847;-91
2022/08/31 08:43:10;;;;;;;;;9.75;9.00;;;;;22.18;47.69;101707.69;2404517;28;47587;-92
2022/08/31 08:44:26;;;;;;;;;11.50;10.00;;;;;22.23;47.68;101716.28;2406150;28;45228;-85
2022/08/31 08:45:39;;;;;;;;;12.50;12.50;;;;;22.25;47.80;101717.03;2415653;28;45332;-91
2022/08/31 08:46:54;;;;;;;;;16.00;12.00;;;;;22.26;47.84;101709.84;2422656;28;45375;-91
2022/08/31 08:48:08;;;;;;;;;11.75;9.00;;;;;22.28;47.87;101712.41;2422748;28;46546;-92
2022/08/31 08:49:37;;;;;;;;;16.25;14.75;;;;;22.31;47.92;101715.75;2412760;28;45427;-92
2022/08/31 08:50:51;;;;;;;;;14.00;13.50;;;;;22.30;47.43;101713.19;2398853;28;46056;-93
2022/08/31 08:52:27;;;;;;;;;14.25;13.25;;;;;22.31;48.09;101702.38;2404089;28;45334;-91
2022/08/31 08:53:41;;;;;;;;;12.25;12.25;;;;;22.35;47.88;101713.72;2409293;28;48388;-93
2022/08/31 08:54:54;;;;;;;;;17.75;13.25;;;;;22.35;47.76;101709.22;2406297;28;45250;-92
2022/08/31 08:56:04;;;;;;;;;13.50;10.50;;;;;22.37;47.86;101709.97;2411526;28;45301;-91
2022/08/31 08:57:29;;;;;;;;;14.25;14.25;;;;;22.41;47.67;101707.09;2412724;28;45210;-92
2022/08/31 08:58:42;;;;;;;;;14.00;12.50;;;;;22.44;47.81;101712.25;2413003;28;47241;-92
2022/08/31 08:59:58;;;;;;;;;13.25;10.75;;;;;22.49;47.77;101713.63;2411175;28;45269;-91
2022/08/31 09:01:15;;;;;;;;;10.00;10.00;;;;;22.51;47.97;101708.19;2414754;28;45350;-91
2022/08/31 09:03:06;;;;;;;;;16.00;13.50;;;;;22.55;47.81;101700.78;2412578;28;45230;-91
2022/08/31 09:04:29;;;;;;;;;14.50;13.25;;;;;22.58;47.73;101711.28;2400979;28;47350;-91
2022/08/31 09:06:08;;;;;;;;;12.50;11.50;;;;;22.57;47.39;101702.38;2407416;28;45285;-91
2022/08/31 09:07:30;;;;;;;;;10.50;8.75;;;;;22.60;47.38;101702.19;2402852;28;48258;-94
2022/08/31 09:08:58;;;;;;;;;14.50;13.00;;;;;22.62;47.75;101704.75;2402901;28;44695;-92
2022/08/31 09:10:23;;;;;;;;;9.00;8.75;;;;;22.63;47.62;101703.78;2415989;28;47993;-92
2022/08/31 09:11:45;;;;;;;;;12.25;12.25;;;;;22.66;47.59;101708.94;2412136;28;44608;-92
2022/08/31 09:13:11;;;;;;;;;13.75;12.50;;;;;22.66;46.99;101706.25;2416328;28;46565;-92
2022/08/31 09:14:27;;;;;;;;;14.50;12.75;;;;;22.68;47.18;101707.00;2403231;28;45350;-91
2022/08/31 09:15:47;;;;;;;;;16.25;11.50;;;;;22.70;47.19;101702.44;2410407;28;47414;-91
2022/08/31 09:17:30;;;;;;;;;8.75;8.25;;;;;22.76;47.36;101698.47;2408080;28;44828;-90
2022/08/31 09:19:01;;;;;;;;;11.00;9.50;;;;;22.80;47.23;101696.41;2410112;28;47375;-91
2022/08/31 09:20:12;;;;;;;;;10.75;10.50;;;;;22.84;47.05;101697.91;2410910;28;45274;-91
2022/08/31 09:21:33;;;;;;;;;12.25;10.75;;;;;22.88;46.93;101699.41;2410674;28;45651;-92
2022/08/31 09:22:48;;;;;;;;;12.00;12.00;;;;;22.90;47.60;101697.47;2409916;28;45241;-91
2022/08/31 09:24:03;;;;;;;;;11.00;9.25;;;;;22.93;47.06;101689.25;2404940;28;47655;-90
2022/08/31 09:25:32;;;;;;;;;15.25;12.25;;;;;22.98;47.11;101688.03;2396662;28;45274;-93
2022/08/31 09:26:54;;;;;;;;;8.50;7.50;;;;;23.03;47.23;101685.88;2402135;28;46433;-91
2022/08/31 09:28:07;;;;;;;;;15.50;11.75;;;;;23.07;47.00;101687.38;2406586;28;44595;-92
2022/08/31 09:29:30;;;;;;;;;8.50;7.25;;;;;23.09;47.22;101680.06;2414928;28;46480;-93
2022/08/31 09:30:43;;;;;;;;;5.75;5.50;;;;;23.12;46.80;101679.88;2422077;28;45237;-91
2022/08/31 09:32:06;;;;;;;;;11.50;9.25;;;;;23.15;46.91;101674.28;2412186;28;47408;-91
2022/08/31 09:33:26;;;;;;;;;14.25;13.25;;;;;23.19;46.96;101674.06;2406911;28;45182;-93
2022/08/31 09:34:40;;;;;;;;;11.00;11.00;;;;;23.22;46.48;101681.88;2405233;28;48194;-92
2022/08/31 09:35:57;;;;;;;;;16.25;11.75;;;;;23.23;46.55;101675.56;2396535;28;45318;-92
2022/08/31 09:37:18;;;;;;;;;9.50;9.50;;;;;23.26;46.74;101669.97;2401315;28;47926;-91
2022/08/31 09:38:37;;;;;;;;;15.75;11.00;;;;;23.31;46.59;101672.31;2396023;28;45409;-91
2022/08/31 09:39:51;;;;;;;;;11.50;11.00;;;;;23.32;46.21;101672.19;2412063;28;47097;-92
2022/08/31 09:41:04;;;;;;;;;11.00;10.25;;;;;23.37;46.78;101672.72;2407583;28;45485;-91
2022/08/31 09:42:18;;;;;;;;;12.25;10.25;;;;;23.40;46.73;101676.13;2406329;28;47537;-94
2022/08/31 09:43:37;;;;;;;;;10.50;10.50;;;;;23.41;46.28;101670.66;2419001;28;45333;-92
2022/08/31 09:44:49;;;;;;;;;12.75;11.00;;;;;23.42;46.79;101677.75;2410614;28;47487;-93
2022/08/31 09:46:03;;;;;;;;;13.75;11.50;;;;;23.44;46.76;101670.44;2400057;28;44701;-93
2022/08/31 09:47:41;;;;;;;;;11.75;11.75;;;;;23.45;46.76;101680.22;2405394;28;47344;-93
2022/08/31 09:48:57;;;;;;;;;14.50;13.00;;;;;23.49;46.50;101675.47;2418902;28;44861;-93
2022/08/31 09:50:09;;;;;;;;;15.25;12.00;;;;;23.48;45.87;101674.63;2413679;28;47381;-94
2022/08/31 09:51:26;;;;;;;;;15.25;12.50;;;;;23.51;45.75;101673.53;2404333;28;45553;-93
2022/08/31 09:56:04;;;;;;;;;13.25;12.25;;;;;23.57;46.54;101667.75;2420833;28;45487;-93
2022/08/31 09:57:16;;;;;;;;;12.00;10.50;;;;;23.62;46.86;101666.53;2404461;28;45431;-95
2022/08/31 09:58:29;;;;;;;;;8.25;7.25;;;;;23.65;46.38;101669.84;2396892;28;47876;-95
2022/08/31 09:59:46;;;;;;;;;13.50;12.75;;;;;23.68;46.03;101666.09;2414599;28;44703;-92
2022/08/31 10:01:11;;;;;;;;;14.25;10.75;;;;;23.74;46.04;101665.63;2409367;28;46206;-92
2022/08/31 10:02:21;;;;;;;;;12.00;10.50;;;;;23.76;45.76;101658.31;2413859;28;45416;-94
2022/08/31 10:03:36;;;;;;;;;14.50;13.00;;;;;23.80;46.31;101657.13;2409272;28;47230;-94
2022/08/31 10:04:57;;;;;;;;;8.75;8.75;;;;;23.83;45.96;101654.19;2405865;28;44636;-95
2022/08/31 10:06:24;;;;;;;;;14.00;12.75;;;;;23.88;46.15;101653.81;2406774;28;47806;-95
2022/08/31 10:07:42;;;;;;;;;11.50;10.00;;;;;23.93;45.82;101650.78;2407261;28;45281;-93
2022/08/31 10:08:57;;;;;;;;;11.00;11.00;;;;;23.97;45.83;101649.59;2411613;28;47099;-93
2022/08/31 10:10:24;;;;;;;;;13.75;9.75;;;;;24.02;45.76;101660.00;2406090;28;45422;-94
2022/08/31 10:11:35;;;;;;;;;12.50;11.75;;;;;24.06;45.74;101658.78;2407344;28;47640;-94
2022/08/31 10:12:55;;;;;;;;;16.00;13.00;;;;;24.11;45.55;101650.34;2406358;28;44817;-92
2022/08/31 10:14:18;;;;;;;;;10.50;9.00;;;;;24.15;45.65;101649.16;2404376;28;47444;-93
2022/08/31 10:15:38;;;;;;;;;16.00;13.00;;;;;24.20;45.43;101643.44;2404940;28;45436;-93
2022/08/31 10:17:03;;;;;;;;;10.50;9.75;;;;;24.23;45.35;101641.34;2400673;28;47453;-94
2022/08/31 10:18:17;;;;;;;;;13.50;12.50;;;;;24.29;45.31;101645.44;2408865;28;45269;-93
2022/08/31 10:19:42;;;;;;;;;15.00;13.25;;;;;24.30;45.05;101635.56;2412258;28;47188;-93
2022/08/31 10:21:04;;;;;;;;;10.50;9.00;;;;;24.34;45.11;101643.25;2407913;28;45230;-94
2022/08/31 10:22:24;;;;;;;;;14.00;12.00;;;;;24.35;45.34;101638.72;2401040;28;48224;-92
2022/08/31 10:23:53;;;;;;;;;10.50;10.25;;;;;24.40;45.38;101633.84;2415138;28;44716;-92
2022/08/31 10:25:13;;;;;;;;;9.00;9.00;;;;;24.43;45.08;101636.28;2410808;28;47767;-93
2022/08/31 10:26:35;;;;;;;;;13.75;11.50;;;;;24.45;44.71;101650.44;2403625;28;45431;-93
2022/08/31 10:28:02;;;;;;;;;11.25;9.25;;;;;24.46;44.94;101644.13;2407211;28;48082;-94
2022/08/31 10:29:19;;;;;;;;;9.50;8.50;;;;;24.49;45.06;101638.50;2411913;28;44659;-93
2022/08/31 10:30:42;;;;;;;;;10.00;9.75;;;;;24.55;44.42;101644.34;2410800;28;47002;-94
2022/08/31 10:31:57;;;;;;;;;14.25;12.50;;;;;24.60;44.78;101655.59;2416507;28;45246;-92
2022/08/31 10:33:18;;;;;;;;;14.50;11.50;;;;;24.63;44.86;101646.44;2411737;28;47810;-93
2022/08/31 10:36:06;;;;;;;;;11.00;9.50;;;;;24.68;44.64;101638.88;2409866;28;45360;-94
2022/08/31 10:37:32;;;;;;;;;12.50;9.25;;;;;24.71;44.44;101634.13;2407025;28;45275;-93
2022/08/31 10:38:46;;;;;;;;;10.25;9.75;;;;;24.76;44.14;101636.44;2408121;28;46099;-93
2022/08/31 10:40:05;;;;;;;;;13.75;11.00;;;;;24.79;44.33;101636.16;2401820;28;45499;-93
2022/08/31 10:41:15;;;;;;;;;12.50;10.25;;;;;24.81;44.33;101636.91;2406789;28;48053;-93
2022/08/31 10:42:31;;;;;;;;;13.00;9.75;;;;;24.85;44.12;101642.88;2411719;28;45357;-93
2022/08/31 10:44:15;;;;;;;;;9.50;8.50;;;;;24.88;44.33;101642.66;2411786;28;46193;-92
2022/08/31 10:45:28;;;;;;;;;11.00;10.50;;;;;24.90;44.56;101627.25;2404306;28;44579;-93
2022/08/31 10:46:39;;;;;;;;;16.25;13.25;;;;;24.93;44.18;101631.53;2415015;28;45391;-93
2022/08/31 10:47:54;;;;;;;;;12.75;10.50;;;;;24.94;44.35;101635.94;2413198;28;45423;-94
2022/08/31 10:49:05;;;;;;;;;10.25;9.25;;;;;24.98;44.02;101628.47;2411527;28;45504;-93
2022/08/31 10:50:32;;;;;;;;;11.00;10.00;;;;;25.02;43.77;101632.63;2409694;28;44629;-93
2022/08/31 10:52:20;;;;;;;;;12.25;12.25;;;;;25.07;44.00;101622.34;2399061;28;48070;-93
2022/08/31 10:53:58;;;;;;;;;11.75;11.25;;;;;25.12;43.92;101627.34;2406423;28;45428;-93
2022/08/31 10:55:50;;;;;;;;;6.00;6.00;;;;;25.15;44.05;101625.28;2410853;28;47155;-93
2022/08/31 10:57:28;;;;;;;;;12.50;9.25;;;;;25.21;44.13;101628.44;2353524;28;45365;-90
2022/08/31 10:58:51;;;;;;;;;7.50;7.25;;;;;25.23;43.89;101624.66;2398858;28;47326;-94
2022/08/31 11:00:40;;;;;;;;;11.50;11.50;;;;;25.26;43.68;101627.06;2405076;28;45385;-94
2022/08/31 11:01:44;;;;;;;;;12.50;11.00;;;;;25.28;44.03;101629.66;2411401;28;46182;-93
2022/08/31 11:03:13;;;;;;;;;10.50;9.25;;;;;25.30;43.59;101622.31;2402197;28;45803;-93
2022/08/31 11:04:46;;;;;;;;;9.25;8.75;;;;;25.32;43.64;101628.41;2403590;28;48403;-94
2022/08/31 11:06:26;;;;;;;;;10.50;10.00;;;;;25.36;43.91;101626.34;2398596;28;45179;-92
2022/08/31 11:07:40;;;;;;;;;7.50;7.25;;;;;25.38;43.12;101622.53;2408944;28;47378;-93
2022/08/31 11:09:11;;;;;;;;;13.75;12.25;;;;;25.40;43.67;101623.25;2405484;28;45203;-93
2022/08/31 11:10:39;;;;;;;;;11.00;10.00;;;;;25.42;43.29;101614.19;2403636;28;47381;-94
2022/08/31 11:12:03;;;;;;;;;12.50;12.00;;;;;25.45;43.37;101619.31;2412186;28;45305;-93
2022/08/31 11:13:59;;;;;;;;;14.50;10.25;;;;;25.47;43.11;101617.34;2408612;28;47367;-92